Airfield :
LOGIN :

Register | Disclaimer

   EN    FR    IT 

 










Legend :    VFR   Marginal VFR   IFR   Intensive IFR   Very Intensive IFR
Visi :
Ceiling :
>= 8 km
>= 3000ft
5 to 8 km
1000 to 3000 ft
1500m to 5 km
500 to 1000 ft
800 to 1500m
200 to 500 ft
< 800m
< 200 ft
Symbols :   Thunderstorms  Fog  Heavy snow  Heavy precipitations  Wind > 20 kt
SIGMETs :     Misc.  Thunderstorms  Icing  Turbulence  Mountain Waves  Volcanic Ashes






- Airport Elevation : 300 ft
- IATA code : MLA


LMML - Malta Luqa

CURRENT METAR :
  • 300715Z 06004KT 030V090 9999 -RA FEW012 11/10 Q1011 NOSIG

EXPIRED METARs :
  • 300645Z 09006KT 9999 -RA FEW012 10/10 Q1010 NOSIG
  • 300615Z 09007KT 9000 -RA NSC 10/09 Q1010 NOSIG
  • 300545Z 07006KT 8000 -RA NSC 10/09 Q1010 NOSIG
  • 300515Z 08008KT 8000 -RA NSC 10/10 Q1010 NOSIG

TAF TAF LMML
Valid from the 30 at 06:00 until the 31 at 06:00 UTC


300500Z 3006/3106 02008KT 9999 SCT015 BKN040
TEMPO 3006/3020 6000 RA SHRA BKN009 BKN012
PROB40
TEMPO 3006/3017 VRB20G30KT 3000 TSRAGS BKN005 BKN012CB
BECMG
BECMG 3020/3023 32012KT



MET'MAP, your aeronautical weather chart ! - Copyright ORBIFLY December 2007 - Disclaimer

ORBIFLY MET'MAP TEAM :

Programming & Development : Alexandra Zaïnal
Concept & original design : Baudouin d'Aumeries
Assistance for programming : Marc-Olivier Méhu
Technical & hardware support : Manuel Goepfert

Contact : metmap@orbifly.com




SOURCES & CREDITS :

   NOAA